ホノルル の空港の天気 - METARとTAF

ホノルル国際空港 ( PHNL / HNL ) - アメリカ ハワイ州ホノルル
飛行場実況気象(Metar)
観測時間05/28 12:53 HST (05/28 22:53 UTC)
風向・風速東北東 10m/s
視程10km以上
天気現象
少しの雲 雲底高度 730m
全天の4割程度の雲 雲底高度 1190m
全天の4割程度の雲 雲底高度 1490m
全天の8割程度の雲 雲底高度 4570m
気温28.9℃
湿度57%
気圧1016.7hPa
METARPHNL 282253Z 07019KT 10SM FEW024 SCT039 SCT049 BKN150 29/19 A3002 RMK AO2 SLP167 T02890194
過去の天気等 Google飛行場航空写真 Wunderground天気予報

過去48時間のMETAR

飛行場予報(TAF)
発表時間: 5/28 13:39 HST (5/28 23:39 UTC)
予報対象時間: 28日14時 HST ~ 29日20時 HST
風向・風速東北東 6m/s 瞬間風速 9m/s
視程10km以上
少しの雲 雲底高度 760m
全天の4割程度の雲 雲底高度 1520m
28日20時 HST から
風向・風速北東 4m/s
視程10km以上
全天の4割程度の雲 雲底高度 760m
全天の4割程度の雲 雲底高度 1370m
29日10時 HST から
風向・風速南東 5m/s
視程10km以上
全天の4割程度の雲 雲底高度 760m
全天の4割程度の雲 雲底高度 1370m
29日16時 HST から
風向・風速北東 4m/s
視程10km以上
少しの雲 雲底高度 760m
全天の4割程度の雲 雲底高度 1370m
PHNL 282339Z 2900/3006 07012G18KT P6SM FEW025 SCT050
FM290600 05008KT P6SM SCT025 SCT045
FM292000 13010KT P6SM SCT025 SCT045
FM300200 05008KT P6SM FEW025 SCT045